sensor_id;sensor_type;location;lat;lon;timestamp;temperature;humidity
15609;DHT22;64278;45.642;13.756;2023-04-01T00:00:19;22.50;59.60
15609;DHT22;64278;45.642;13.756;2023-04-01T00:02:44;22.50;59.60
15609;DHT22;64278;45.642;13.756;2023-04-01T00:05:11;22.50;59.60
15609;DHT22;64278;45.642;13.756;2023-04-01T00:07:38;22.50;59.60
15609;DHT22;64278;45.642;13.756;2023-04-01T00:10:06;22.50;59.70
15609;DHT22;64278;45.642;13.756;2023-04-01T00:12:31;22.50;59.70
15609;DHT22;64278;45.642;13.756;2023-04-01T00:14:57;22.50;59.70
15609;DHT22;64278;45.642;13.756;2023-04-01T00:17:23;22.40;59.60
15609;DHT22;64278;45.642;13.756;2023-04-01T00:19:49;22.50;59.70
15609;DHT22;64278;45.642;13.756;2023-04-01T00:22:14;22.50;59.70
15609;DHT22;64278;45.642;13.756;2023-04-01T00:24:40;22.40;59.70
15609;DHT22;64278;45.642;13.756;2023-04-01T00:27:06;22.40;59.70
15609;DHT22;64278;45.642;13.756;2023-04-01T00:29:33;22.40;59.70
15609;DHT22;64278;45.642;13.756;2023-04-01T00:31:59;22.40;59.70
15609;DHT22;64278;45.642;13.756;2023-04-01T00:34:25;22.40;59.70
15609;DHT22;64278;45.642;13.756;2023-04-01T00:36:51;22.40;59.70
15609;DHT22;64278;45.642;13.756;2023-04-01T00:39:19;22.40;59.80
15609;DHT22;64278;45.642;13.756;2023-04-01T00:41:45;22.40;59.80
15609;DHT22;64278;45.642;13.756;2023-04-01T00:44:20;22.40;59.80
15609;DHT22;64278;45.642;13.756;2023-04-01T00:46:46;22.40;59.70
15609;DHT22;64278;45.642;13.756;2023-04-01T00:49:13;22.40;59.80
15609;DHT22;64278;45.642;13.756;2023-04-01T00:51:41;22.40;59.80
15609;DHT22;64278;45.642;13.756;2023-04-01T00:54:09;22.40;59.80
15609;DHT22;64278;45.642;13.756;2023-04-01T00:56:37;22.40;59.80
15609;DHT22;64278;45.642;13.756;2023-04-01T00:59:18;22.40;59.80
15609;DHT22;64278;45.642;13.756;2023-04-01T01:01:45;22.40;59.80
15609;DHT22;64278;45.642;13.756;2023-04-01T01:04:27;22.40;59.90
15609;DHT22;64278;45.642;13.756;2023-04-01T01:12:19;22.30;59.80
15609;DHT22;64278;45.642;13.756;2023-04-01T01:37:25;22.30;59.80
15609;DHT22;64278;45.642;13.756;2023-04-01T01:39:58;22.30;59.70
15609;DHT22;64278;45.642;13.756;2023-04-01T01:42:27;22.20;59.70
15609;DHT22;64278;45.642;13.756;2023-04-01T01:44:55;22.30;60.50
15609;DHT22;64278;45.642;13.756;2023-04-01T01:47:23;22.30;59.70
15609;DHT22;64278;45.642;13.756;2023-04-01T01:49:51;22.20;59.70
15609;DHT22;64278;45.642;13.756;2023-04-01T01:52:18;22.30;59.70
15609;DHT22;64278;45.642;13.756;2023-04-01T01:54:51;22.30;59.70
15609;DHT22;64278;45.642;13.756;2023-04-01T01:57:22;22.30;59.70
15609;DHT22;64278;45.642;13.756;2023-04-01T01:59:49;22.20;59.70
15609;DHT22;64278;45.642;13.756;2023-04-01T02:02:16;22.20;59.70
15609;DHT22;64278;45.642;13.756;2023-04-01T02:04:44;22.30;59.70
15609;DHT22;64278;45.642;13.756;2023-04-01T02:07:16;22.20;59.70
15609;DHT22;64278;45.642;13.756;2023-04-01T02:09:42;22.20;59.70
15609;DHT22;64278;45.642;13.756;2023-04-01T02:12:11;22.20;59.70
15609;DHT22;64278;45.642;13.756;2023-04-01T02:17:10;22.20;59.60
15609;DHT22;64278;45.642;13.756;2023-04-01T02:19:40;22.20;59.60
15609;DHT22;64278;45.642;13.756;2023-04-01T02:22:11;22.20;59.60
15609;DHT22;64278;45.642;13.756;2023-04-01T02:24:40;22.20;59.60
15609;DHT22;64278;45.642;13.756;2023-04-01T02:27:06;22.20;59.60
15609;DHT22;64278;45.642;13.756;2023-04-01T02:29:33;22.20;59.60
15609;DHT22;64278;45.642;13.756;2023-04-01T02:32:00;22.20;59.60
15609;DHT22;64278;45.642;13.756;2023-04-01T02:34:26;22.20;59.60
15609;DHT22;64278;45.642;13.756;2023-04-01T02:36:52;22.20;59.60
15609;DHT22;64278;45.642;13.756;2023-04-01T02:39:19;22.20;59.60
15609;DHT22;64278;45.642;13.756;2023-04-01T02:41:45;22.20;59.60
15609;DHT22;64278;45.642;13.756;2023-04-01T02:44:13;22.20;59.60
15609;DHT22;64278;45.642;13.756;2023-04-01T02:46:39;22.20;59.60
15609;DHT22;64278;45.642;13.756;2023-04-01T02:49:06;22.10;59.50
15609;DHT22;64278;45.642;13.756;2023-04-01T02:51:32;22.20;59.90
15609;DHT22;64278;45.642;13.756;2023-04-01T02:53:58;22.20;59.60
15609;DHT22;64278;45.642;13.756;2023-04-01T02:56:24;22.10;59.50
15609;DHT22;64278;45.642;13.756;2023-04-01T02:58:51;22.20;59.50
15609;DHT22;64278;45.642;13.756;2023-04-01T03:01:17;22.20;59.60
15609;DHT22;64278;45.642;13.756;2023-04-01T03:03:43;22.20;59.50
15609;DHT22;64278;45.642;13.756;2023-04-01T03:06:11;22.20;59.50
15609;DHT22;64278;45.642;13.756;2023-04-01T03:08:38;22.20;59.50
15609;DHT22;64278;45.642;13.756;2023-04-01T03:11:04;22.10;59.50
15609;DHT22;64278;45.642;13.756;2023-04-01T03:13:30;22.20;59.60
15609;DHT22;64278;45.642;13.756;2023-04-01T03:15:56;22.10;59.50
15609;DHT22;64278;45.642;13.756;2023-04-01T03:18:21;22.10;59.60
15609;DHT22;64278;45.642;13.756;2023-04-01T03:20:47;22.10;60.20
15609;DHT22;64278;45.642;13.756;2023-04-01T03:23:13;22.10;59.50
15609;DHT22;64278;45.642;13.756;2023-04-01T03:25:39;22.10;59.50
15609;DHT22;64278;45.642;13.756;2023-04-01T03:28:05;22.10;59.40
15609;DHT22;64278;45.642;13.756;2023-04-01T03:30:30;22.10;59.40
15609;DHT22;64278;45.642;13.756;2023-04-01T03:32:57;22.10;59.40
15609;DHT22;64278;45.642;13.756;2023-04-01T03:35:23;22.10;59.40
15609;DHT22;64278;45.642;13.756;2023-04-01T03:37:53;22.10;59.30
15609;DHT22;64278;45.642;13.756;2023-04-01T03:40:20;22.00;59.30
15609;DHT22;64278;45.642;13.756;2023-04-01T03:42:46;22.10;59.40
15609;DHT22;64278;45.642;13.756;2023-04-01T03:45:12;22.00;59.30
15609;DHT22;64278;45.642;13.756;2023-04-01T03:47:38;22.10;59.30
15609;DHT22;64278;45.642;13.756;2023-04-01T03:50:07;22.10;59.30
15609;DHT22;64278;45.642;13.756;2023-04-01T03:52:33;22.10;59.30
15609;DHT22;64278;45.642;13.756;2023-04-01T03:54:59;22.10;59.30
15609;DHT22;64278;45.642;13.756;2023-04-01T03:57:25;22.10;60.00
15609;DHT22;64278;45.642;13.756;2023-04-01T03:59:51;22.10;59.30
15609;DHT22;64278;45.642;13.756;2023-04-01T04:02:17;22.00;59.20
15609;DHT22;64278;45.642;13.756;2023-04-01T04:04:43;22.00;59.20
15609;DHT22;64278;45.642;13.756;2023-04-01T04:07:08;22.00;59.20
15609;DHT22;64278;45.642;13.756;2023-04-01T04:09:34;22.00;59.20
15609;DHT22;64278;45.642;13.756;2023-04-01T04:12:00;22.00;59.20
15609;DHT22;64278;45.642;13.756;2023-04-01T04:14:26;22.00;59.20
15609;DHT22;64278;45.642;13.756;2023-04-01T04:16:52;22.00;59.20
15609;DHT22;64278;45.642;13.756;2023-04-01T04:19:18;22.00;59.20
15609;DHT22;64278;45.642;13.756;2023-04-01T04:21:47;22.00;59.20
15609;DHT22;64278;45.642;13.756;2023-04-01T04:24:13;22.00;59.20
15609;DHT22;64278;45.642;13.756;2023-04-01T04:26:39;22.00;59.20
15609;DHT22;64278;45.642;13.756;2023-04-01T04:29:05;22.00;59.20
15609;DHT22;64278;45.642;13.756;2023-04-01T04:31:31;22.00;59.20
15609;DHT22;64278;45.642;13.756;2023-04-01T04:33:59;22.00;59.20
15609;DHT22;64278;45.642;13.756;2023-04-01T04:36:25;22.00;59.10
15609;DHT22;64278;45.642;13.756;2023-04-01T04:38:51;22.00;59.10
15609;DHT22;64278;45.642;13.756;2023-04-01T04:41:18;22.00;59.10
15609;DHT22;64278;45.642;13.756;2023-04-01T04:43:50;22.00;59.10
15609;DHT22;64278;45.642;13.756;2023-04-01T04:46:16;22.00;59.10
15609;DHT22;64278;45.642;13.756;2023-04-01T04:48:42;22.00;59.10
15609;DHT22;64278;45.642;13.756;2023-04-01T04:51:16;22.00;59.10
15609;DHT22;64278;45.642;13.756;2023-04-01T04:53:42;22.00;59.00
15609;DHT22;64278;45.642;13.756;2023-04-01T04:56:08;22.00;59.00
15609;DHT22;64278;45.642;13.756;2023-04-01T04:58:34;22.00;59.00
15609;DHT22;64278;45.642;13.756;2023-04-01T05:01:12;22.00;59.00
15609;DHT22;64278;45.642;13.756;2023-04-01T05:03:39;22.00;59.00
15609;DHT22;64278;45.642;13.756;2023-04-01T05:06:05;22.00;58.90
15609;DHT22;64278;45.642;13.756;2023-04-01T05:08:31;21.90;58.90
15609;DHT22;64278;45.642;13.756;2023-04-01T05:10:58;22.00;58.90
15609;DHT22;64278;45.642;13.756;2023-04-01T05:13:24;21.90;58.80
15609;DHT22;64278;45.642;13.756;2023-04-01T05:15:50;21.90;58.80
15609;DHT22;64278;45.642;13.756;2023-04-01T05:18:16;21.90;58.80
15609;DHT22;64278;45.642;13.756;2023-04-01T05:20:50;21.90;58.80
15609;DHT22;64278;45.642;13.756;2023-04-01T05:23:17;21.90;58.80
15609;DHT22;64278;45.642;13.756;2023-04-01T05:25:43;21.90;58.80
15609;DHT22;64278;45.642;13.756;2023-04-01T05:28:10;21.90;58.70
15609;DHT22;64278;45.642;13.756;2023-04-01T05:30:36;21.90;58.70
15609;DHT22;64278;45.642;13.756;2023-04-01T05:33:02;21.90;58.70
15609;DHT22;64278;45.642;13.756;2023-04-01T05:35:28;21.90;58.70
15609;DHT22;64278;45.642;13.756;2023-04-01T05:37:53;21.90;58.70
15609;DHT22;64278;45.642;13.756;2023-04-01T05:40:19;21.90;58.70
15609;DHT22;64278;45.642;13.756;2023-04-01T05:42:45;21.90;58.70
15609;DHT22;64278;45.642;13.756;2023-04-01T05:45:11;21.90;58.70
15609;DHT22;64278;45.642;13.756;2023-04-01T05:47:37;21.90;58.70
15609;DHT22;64278;45.642;13.756;2023-04-01T05:50:02;21.90;58.60
15609;DHT22;64278;45.642;13.756;2023-04-01T05:52:28;21.90;58.70
15609;DHT22;64278;45.642;13.756;2023-04-01T05:54:54;21.90;58.60
15609;DHT22;64278;45.642;13.756;2023-04-01T05:57:19;21.90;58.70
15609;DHT22;64278;45.642;13.756;2023-04-01T05:59:46;21.90;58.70
15609;DHT22;64278;45.642;13.756;2023-04-01T06:02:11;21.90;58.70
15609;DHT22;64278;45.642;13.756;2023-04-01T06:04:39;21.90;58.70
15609;DHT22;64278;45.642;13.756;2023-04-01T06:07:14;21.90;58.70
15609;DHT22;64278;45.642;13.756;2023-04-01T06:09:41;21.90;58.70
15609;DHT22;64278;45.642;13.756;2023-04-01T06:23:02;21.90;58.70
15609;DHT22;64278;45.642;13.756;2023-04-01T06:25:35;21.90;58.70
15609;DHT22;64278;45.642;13.756;2023-04-01T06:44:32;21.90;58.60
15609;DHT22;64278;45.642;13.756;2023-04-01T06:49:49;21.90;58.60
15609;DHT22;64278;45.642;13.756;2023-04-01T06:55:24;21.90;58.70
15609;DHT22;64278;45.642;13.756;2023-04-01T06:57:55;21.90;58.70
15609;DHT22;64278;45.642;13.756;2023-04-01T07:00:36;21.90;58.70
15609;DHT22;64278;45.642;13.756;2023-04-01T07:05:44;21.90;58.70
15609;DHT22;64278;45.642;13.756;2023-04-01T07:08:13;21.90;58.70
15609;DHT22;64278;45.642;13.756;2023-04-01T07:10:49;21.90;58.70
15609;DHT22;64278;45.642;13.756;2023-04-01T07:16:14;21.90;58.70
15609;DHT22;64278;45.642;13.756;2023-04-01T07:18:56;21.80;58.50
15609;DHT22;64278;45.642;13.756;2023-04-01T07:21:28;21.90;58.60
15609;DHT22;64278;45.642;13.756;2023-04-01T07:24:00;21.90;58.50
15609;DHT22;64278;45.642;13.756;2023-04-01T07:26:28;21.80;58.50
15609;DHT22;64278;45.642;13.756;2023-04-01T07:28:54;21.90;58.50
15609;DHT22;64278;45.642;13.756;2023-04-01T07:36:33;21.80;58.40
15609;DHT22;64278;45.642;13.756;2023-04-01T07:39:38;21.80;58.40
15609;DHT22;64278;45.642;13.756;2023-04-01T07:44:52;21.80;58.40
15609;DHT22;64278;45.642;13.756;2023-04-01T07:47:27;21.80;58.30
15609;DHT22;64278;45.642;13.756;2023-04-01T07:53:07;21.80;58.30
15609;DHT22;64278;45.642;13.756;2023-04-01T08:07:23;21.80;58.10
15609;DHT22;64278;45.642;13.756;2023-04-01T08:21:05;21.80;58.00
15609;DHT22;64278;45.642;13.756;2023-04-01T08:23:37;21.80;57.90
15609;DHT22;64278;45.642;13.756;2023-04-01T08:29:09;21.80;57.90
15609;DHT22;64278;45.642;13.756;2023-04-01T08:32:39;21.80;57.80
15609;DHT22;64278;45.642;13.756;2023-04-01T08:34:50;21.80;57.70
15609;DHT22;64278;45.642;13.756;2023-04-01T08:37:24;21.80;57.70
15609;DHT22;64278;45.642;13.756;2023-04-01T08:39:55;21.80;57.70
15609;DHT22;64278;45.642;13.756;2023-04-01T08:43:04;21.80;57.70
15609;DHT22;64278;45.642;13.756;2023-04-01T09:07:26;21.80;57.50
15609;DHT22;64278;45.642;13.756;2023-04-01T09:10:59;21.80;57.40
15609;DHT22;64278;45.642;13.756;2023-04-01T09:19:21;21.80;57.40
15609;DHT22;64278;45.642;13.756;2023-04-01T09:21:37;21.80;57.40
15609;DHT22;64278;45.642;13.756;2023-04-01T09:29:51;21.80;57.30
15609;DHT22;64278;45.642;13.756;2023-04-01T09:35:22;21.80;57.40
15609;DHT22;64278;45.642;13.756;2023-04-01T09:53:13;21.90;57.60
15609;DHT22;64278;45.642;13.756;2023-04-01T09:58:19;21.90;57.60
15609;DHT22;64278;45.642;13.756;2023-04-01T10:03:36;21.90;57.60
15609;DHT22;64278;45.642;13.756;2023-04-01T10:14:53;21.90;57.50
15609;DHT22;64278;45.642;13.756;2023-04-01T10:31:36;21.80;52.40
15609;DHT22;64278;45.642;13.756;2023-04-01T10:36:52;21.60;50.90
15609;DHT22;64278;45.642;13.756;2023-04-01T10:42:18;21.60;51.10
15609;DHT22;64278;45.642;13.756;2023-04-01T10:51:01;21.50;51.00
15609;DHT22;64278;45.642;13.756;2023-04-01T10:53:49;21.50;51.50
15609;DHT22;64278;45.642;13.756;2023-04-01T10:57:19;21.50;51.90
15609;DHT22;64278;45.642;13.756;2023-04-01T11:02:45;21.60;51.90
15609;DHT22;64278;45.642;13.756;2023-04-01T11:07:59;21.50;50.00
15609;DHT22;64278;45.642;13.756;2023-04-01T11:13:49;21.50;50.40
15609;DHT22;64278;45.642;13.756;2023-04-01T11:36:34;21.60;52.30
15609;DHT22;64278;45.642;13.756;2023-04-01T11:44:27;21.70;53.70
15609;DHT22;64278;45.642;13.756;2023-04-01T12:14:42;21.80;56.60
15609;DHT22;64278;45.642;13.756;2023-04-01T12:17:27;21.80;57.00
15609;DHT22;64278;45.642;13.756;2023-04-01T12:22:50;21.80;58.00
15609;DHT22;64278;45.642;13.756;2023-04-01T12:29:16;21.80;58.20
15609;DHT22;64278;45.642;13.756;2023-04-01T12:32:09;21.80;58.10
15609;DHT22;64278;45.642;13.756;2023-04-01T12:43:28;21.80;58.70
15609;DHT22;64278;45.642;13.756;2023-04-01T12:46:05;21.80;58.70
15609;DHT22;64278;45.642;13.756;2023-04-01T12:57:09;21.90;58.90
15609;DHT22;64278;45.642;13.756;2023-04-01T13:02:18;21.80;58.70
15609;DHT22;64278;45.642;13.756;2023-04-01T13:22:06;21.90;58.90
15609;DHT22;64278;45.642;13.756;2023-04-01T13:29:49;21.90;59.00
15609;DHT22;64278;45.642;13.756;2023-04-01T13:35:23;21.90;59.10
15609;DHT22;64278;45.642;13.756;2023-04-01T13:41:28;21.90;59.30
15609;DHT22;64278;45.642;13.756;2023-04-01T13:43:52;21.90;59.30
15609;DHT22;64278;45.642;13.756;2023-04-01T13:52:16;21.90;59.20
15609;DHT22;64278;45.642;13.756;2023-04-01T13:58:20;21.90;59.20
15609;DHT22;64278;45.642;13.756;2023-04-01T14:07:13;21.90;59.60
15609;DHT22;64278;45.642;13.756;2023-04-01T14:09:45;21.90;59.50
15609;DHT22;64278;45.642;13.756;2023-04-01T14:12:43;21.90;59.50
15609;DHT22;64278;45.642;13.756;2023-04-01T14:29:27;21.90;59.40
15609;DHT22;64278;45.642;13.756;2023-04-01T14:40:20;21.90;59.30
15609;DHT22;64278;45.642;13.756;2023-04-01T14:43:07;21.90;59.30
15609;DHT22;64278;45.642;13.756;2023-04-01T14:45:51;21.90;59.30
15609;DHT22;64278;45.642;13.756;2023-04-01T14:48:39;21.90;59.20
15609;DHT22;64278;45.642;13.756;2023-04-01T14:51:15;21.90;59.20
15609;DHT22;64278;45.642;13.756;2023-04-01T14:53:51;21.90;59.10
15609;DHT22;64278;45.642;13.756;2023-04-01T14:56:46;21.90;59.10
15609;DHT22;64278;45.642;13.756;2023-04-01T15:05:10;21.90;59.10
15609;DHT22;64278;45.642;13.756;2023-04-01T15:30:51;21.80;59.10
15609;DHT22;64278;45.642;13.756;2023-04-01T15:33:37;21.80;59.00
15609;DHT22;64278;45.642;13.756;2023-04-01T15:58:03;21.90;58.70
15609;DHT22;64278;45.642;13.756;2023-04-01T16:05:51;21.80;58.10
15609;DHT22;64278;45.642;13.756;2023-04-01T16:11:38;21.80;58.00
15609;DHT22;64278;45.642;13.756;2023-04-01T16:17:08;21.80;58.00
15609;DHT22;64278;45.642;13.756;2023-04-01T16:19:53;21.80;58.40
15609;DHT22;64278;45.642;13.756;2023-04-01T16:22:35;21.80;58.00
15609;DHT22;64278;45.642;13.756;2023-04-01T16:25:33;21.80;57.90
15609;DHT22;64278;45.642;13.756;2023-04-01T16:28:28;21.80;57.90
15609;DHT22;64278;45.642;13.756;2023-04-01T16:36:20;21.80;57.90
15609;DHT22;64278;45.642;13.756;2023-04-01T16:39:07;21.80;57.90
15609;DHT22;64278;45.642;13.756;2023-04-01T16:41:38;21.80;58.00
15609;DHT22;64278;45.642;13.756;2023-04-01T16:44:20;21.80;58.00
15609;DHT22;64278;45.642;13.756;2023-04-01T16:46:59;21.80;58.10
15609;DHT22;64278;45.642;13.756;2023-04-01T16:49:51;21.80;58.10
15609;DHT22;64278;45.642;13.756;2023-04-01T16:52:58;21.80;58.20
15609;DHT22;64278;45.642;13.756;2023-04-01T16:55:53;21.80;58.30
15609;DHT22;64278;45.642;13.756;2023-04-01T16:58:27;21.80;58.30
15609;DHT22;64278;45.642;13.756;2023-04-01T17:01:13;21.80;58.20
15609;DHT22;64278;45.642;13.756;2023-04-01T17:03:46;21.80;58.30
15609;DHT22;64278;45.642;13.756;2023-04-01T17:08:50;21.80;58.40
15609;DHT22;64278;45.642;13.756;2023-04-01T17:11:23;21.80;58.40
15609;DHT22;64278;45.642;13.756;2023-04-01T17:22:25;21.80;58.40
15609;DHT22;64278;45.642;13.756;2023-04-01T17:24:57;21.80;58.30
15609;DHT22;64278;45.642;13.756;2023-04-01T17:27:51;21.80;58.30
15609;DHT22;64278;45.642;13.756;2023-04-01T17:39:07;21.80;58.20
15609;DHT22;64278;45.642;13.756;2023-04-01T17:47:17;21.80;58.10
15609;DHT22;64278;45.642;13.756;2023-04-01T17:55:09;21.70;58.10
15609;DHT22;64278;45.642;13.756;2023-04-01T17:58:03;21.70;58.10
15609;DHT22;64278;45.642;13.756;2023-04-01T18:06:31;21.70;58.20
15609;DHT22;64278;45.642;13.756;2023-04-01T18:09:08;21.70;58.20
15609;DHT22;64278;45.642;13.756;2023-04-01T18:17:50;21.70;58.20
15609;DHT22;64278;45.642;13.756;2023-04-01T18:25:40;21.70;58.30
15609;DHT22;64278;45.642;13.756;2023-04-01T18:28:35;21.70;58.30
15609;DHT22;64278;45.642;13.756;2023-04-01T18:36:41;21.90;58.20
15609;DHT22;64278;45.642;13.756;2023-04-01T18:39:23;22.00;58.10
15609;DHT22;64278;45.642;13.756;2023-04-01T18:47:48;22.20;57.90
15609;DHT22;64278;45.642;13.756;2023-04-01T18:50:38;22.30;57.80
15609;DHT22;64278;45.642;13.756;2023-04-01T18:55:51;22.30;57.70
15609;DHT22;64278;45.642;13.756;2023-04-01T18:58:46;22.40;57.70
15609;DHT22;64278;45.642;13.756;2023-04-01T19:01:33;22.40;57.70
15609;DHT22;64278;45.642;13.756;2023-04-01T19:06:53;22.50;57.40
15609;DHT22;64278;45.642;13.756;2023-04-01T19:09:46;22.50;57.30
15609;DHT22;64278;45.642;13.756;2023-04-01T19:15:20;22.50;57.20
15609;DHT22;64278;45.642;13.756;2023-04-01T19:18:08;22.50;57.20
15609;DHT22;64278;45.642;13.756;2023-04-01T19:20:47;22.60;57.30
15609;DHT22;64278;45.642;13.756;2023-04-01T19:25:54;22.60;57.30
15609;DHT22;64278;45.642;13.756;2023-04-01T19:36:58;22.60;57.30
15609;DHT22;64278;45.642;13.756;2023-04-01T19:52:44;22.70;57.10
15609;DHT22;64278;45.642;13.756;2023-04-01T19:57:54;22.70;56.90
15609;DHT22;64278;45.642;13.756;2023-04-01T20:03:03;22.80;57.00
15609;DHT22;64278;45.642;13.756;2023-04-01T20:05:53;22.80;56.90
15609;DHT22;64278;45.642;13.756;2023-04-01T20:11:37;22.80;56.80
15609;DHT22;64278;45.642;13.756;2023-04-01T20:17:01;22.80;56.70
15609;DHT22;64278;45.642;13.756;2023-04-01T20:25:43;22.80;56.70
15609;DHT22;64278;45.642;13.756;2023-04-01T20:28:14;22.90;56.70
15609;DHT22;64278;45.642;13.756;2023-04-01T20:31:04;22.80;56.60
15609;DHT22;64278;45.642;13.756;2023-04-01T20:42:27;22.90;56.70
15609;DHT22;64278;45.642;13.756;2023-04-01T20:47:41;22.90;56.70
15609;DHT22;64278;45.642;13.756;2023-04-01T20:50:25;22.90;56.60
15609;DHT22;64278;45.642;13.756;2023-04-01T21:04:09;23.00;56.70
15609;DHT22;64278;45.642;13.756;2023-04-01T21:06:48;23.00;56.80
15609;DHT22;64278;45.642;13.756;2023-04-01T21:09:47;23.00;56.80
15609;DHT22;64278;45.642;13.756;2023-04-01T21:15:11;23.00;56.80
15609;DHT22;64278;45.642;13.756;2023-04-01T21:34:43;22.90;56.60
15609;DHT22;64278;45.642;13.756;2023-04-01T21:54:30;22.90;56.60
15609;DHT22;64278;45.642;13.756;2023-04-01T22:05:34;22.80;56.60
15609;DHT22;64278;45.642;13.756;2023-04-01T22:08:33;22.80;56.60
15609;DHT22;64278;45.642;13.756;2023-04-01T22:19:10;22.80;56.70
15609;DHT22;64278;45.642;13.756;2023-04-01T22:25:09;22.80;56.70
15609;DHT22;64278;45.642;13.756;2023-04-01T22:27:42;22.80;56.70
15609;DHT22;64278;45.642;13.756;2023-04-01T22:55:44;22.70;56.70
15609;DHT22;64278;45.642;13.756;2023-04-01T22:58:34;22.70;56.70
15609;DHT22;64278;45.642;13.756;2023-04-01T23:01:06;22.70;56.70
15609;DHT22;64278;45.642;13.756;2023-04-01T23:03:39;22.70;56.70
15609;DHT22;64278;45.642;13.756;2023-04-01T23:06:06;22.70;56.70
15609;DHT22;64278;45.642;13.756;2023-04-01T23:11:37;22.70;56.60
15609;DHT22;64278;45.642;13.756;2023-04-01T23:24:52;22.70;56.60
15609;DHT22;64278;45.642;13.756;2023-04-01T23:27:30;22.70;56.60
15609;DHT22;64278;45.642;13.756;2023-04-01T23:30:00;22.60;56.60
15609;DHT22;64278;45.642;13.756;2023-04-01T23:32:26;22.70;56.60
15609;DHT22;64278;45.642;13.756;2023-04-01T23:34:54;22.60;56.60
15609;DHT22;64278;45.642;13.756;2023-04-01T23:37:22;22.60;56.60
15609;DHT22;64278;45.642;13.756;2023-04-01T23:39:49;22.60;56.60
15609;DHT22;64278;45.642;13.756;2023-04-01T23:42:31;22.60;56.60
15609;DHT22;64278;45.642;13.756;2023-04-01T23:45:00;22.60;56.60
15609;DHT22;64278;45.642;13.756;2023-04-01T23:47:34;22.60;56.60
15609;DHT22;64278;45.642;13.756;2023-04-01T23:50:06;22.60;56.60
15609;DHT22;64278;45.642;13.756;2023-04-01T23:52:39;22.60;56.60
15609;DHT22;64278;45.642;13.756;2023-04-01T23:57:38;22.60;56.50
